Time;durP1;ratioP1;P1;durP2;ratioP2;P2;SDS_P1;SDS_P2;PMS_P1;PMS_P2;Temp;Humidity;BMP_temperature;BMP_pressure;BME280_temperature;BME280_humidity;BME280_pressure;Samples;Min_cycle;Max_cycle;Signal;HPM_P1;HPM_P2
2023/07/10 05:48:21;;;;;;;1999.90;999.90;;;17.50;99.90;;;;;;5007895;23;20078;-77
2023/07/10 05:50:48;;;;;;;1999.90;999.90;;;17.50;99.90;;;;;;4968651;29;20498;-79
2023/07/10 05:53:15;;;;;;;1999.90;999.90;;;17.50;99.90;;;;;;4971790;29;20030;-78
2023/07/10 05:55:51;;;;;;;1999.90;999.90;;;17.60;99.90;;;;;;4956168;29;20394;-78
2023/07/10 05:58:19;;;;;;;1999.90;999.90;;;17.80;99.90;;;;;;4954765;29;20503;-78
2023/07/10 06:00:48;;;;;;;1999.90;999.90;;;17.80;99.90;;;;;;4954897;29;20027;-78
2023/07/10 06:03:14;;;;;;;1999.90;999.90;;;17.90;99.90;;;;;;4936760;29;20031;-78
2023/07/10 06:05:40;;;;;;;1999.90;999.90;;;18.00;99.90;;;;;;4954217;29;20504;-78
2023/07/10 06:08:07;;;;;;;1999.90;999.90;;;18.10;99.90;;;;;;4954223;29;20022;-78
2023/07/10 06:10:34;;;;;;;1999.90;999.90;;;18.10;99.90;;;;;;4914469;29;20902;-81
2023/07/10 06:12:59;;;;;;;1999.90;999.90;;;18.10;99.90;;;;;;4914215;29;20725;-78
2023/07/10 06:15:25;;;;;;;1999.90;999.90;;;18.20;99.90;;;;;;4929755;29;20046;-79
2023/07/10 06:17:50;;;;;;;1999.90;999.90;;;18.30;99.90;;;;;;4929360;29;20074;-79
2023/07/10 06:20:16;;;;;;;1999.90;999.90;;;18.40;99.90;;;;;;4930203;29;20047;-78
2023/07/10 06:22:42;;;;;;;1999.90;999.90;;;18.50;99.90;;;;;;4938828;28;20035;-78
2023/07/10 06:25:09;;;;;;;1999.90;999.90;;;18.70;99.90;;;;;;4925259;29;20808;-79
2023/07/10 06:27:34;;;;;;;1999.90;999.90;;;18.90;99.90;;;;;;4931975;28;20708;-78
2023/07/10 06:30:01;;;;;;;1999.90;999.90;;;19.00;99.90;;;;;;4948919;28;20042;-78
2023/07/10 06:32:27;;;;;;;1999.90;999.90;;;19.10;99.90;;;;;;4921453;29;20728;-79
2023/07/10 06:34:52;;;;;;;1999.90;999.90;;;19.20;99.90;;;;;;4943448;28;20043;-79
2023/07/10 06:37:18;;;;;;;1999.90;999.90;;;19.30;99.90;;;;;;4945644;28;20143;-78
2023/07/10 06:39:43;;;;;;;1999.90;999.90;;;19.40;99.90;;;;;;4929236;29;20743;-80
2023/07/10 06:42:09;;;;;;;1999.90;999.90;;;19.50;99.90;;;;;;4928488;29;20046;-80
2023/07/10 06:44:35;;;;;;;1999.90;999.90;;;19.60;99.90;;;;;;4933145;28;20794;-80
2023/07/10 06:47:00;;;;;;;1999.90;999.90;;;19.70;99.90;;;;;;4929095;29;20157;-80
2023/07/10 06:49:26;;;;;;;1999.90;999.90;;;19.70;99.90;;;;;;4927086;29;20142;-80
2023/07/10 06:51:52;;;;;;;1999.90;999.90;;;19.90;99.90;;;;;;4928030;29;20343;-82
2023/07/10 06:54:17;;;;;;;1999.90;999.90;;;19.90;99.90;;;;;;4927996;28;20709;-80
2023/07/10 06:56:43;;;;;;;1999.90;999.90;;;20.00;99.90;;;;;;4927622;29;20043;-80
2023/07/10 06:59:08;;;;;;;1999.90;999.90;;;20.20;99.90;;;;;;4927630;29;20808;-79
2023/07/10 07:01:34;;;;;;;1999.90;999.90;;;20.20;99.90;;;;;;4928381;29;20039;-79
2023/07/10 07:04:00;;;;;;;1999.90;999.90;;;20.30;99.90;;;;;;4927856;29;20059;-77
2023/07/10 07:06:26;;;;;;;1999.90;999.90;;;20.30;99.90;;;;;;4928557;29;20141;-80
2023/07/10 07:08:52;;;;;;;1999.90;999.90;;;20.40;99.90;;;;;;4926481;28;20042;-76
2023/07/10 07:11:18;;;;;;;1999.90;999.90;;;20.60;99.90;;;;;;4926269;29;20565;-77
2023/07/10 07:13:44;;;;;;;1999.90;999.90;;;20.80;99.90;;;;;;4926367;29;20346;-77
2023/07/10 07:16:10;;;;;;;1999.90;999.90;;;21.00;99.90;;;;;;4930428;28;20039;-79
2023/07/10 07:18:35;;;;;;;1999.90;999.90;;;21.20;99.90;;;;;;4931553;29;20035;-78
2023/07/10 07:21:02;;;;;;;1999.90;999.90;;;21.30;99.90;;;;;;4931532;29;20065;-80
2023/07/10 07:23:27;;;;;;;1999.90;999.90;;;21.50;99.90;;;;;;4931873;28;20054;-78
2023/07/10 07:25:54;;;;;;;1999.90;999.90;;;21.50;99.90;;;;;;4908604;28;20138;-79
2023/07/10 07:28:21;;;;;;;1999.90;999.90;;;21.60;99.90;;;;;;4930767;28;20035;-80
2023/07/10 07:30:49;;;;;;;1999.90;999.90;;;21.60;99.90;;;;;;4931292;28;20457;-79
2023/07/10 07:33:17;;;;;;;1999.90;999.90;;;21.90;99.90;;;;;;4924763;28;20431;-77
2023/07/10 07:35:42;;;;;;;1999.90;999.90;;;21.90;99.90;;;;;;4939614;28;20105;-77
2023/07/10 07:38:08;;;;;;;1999.90;999.90;;;21.80;99.90;;;;;;4943096;28;20043;-77
2023/07/10 07:40:35;;;;;;;1999.90;999.90;;;22.20;99.90;;;;;;4922210;29;20031;-77
2023/07/10 07:43:01;;;;;;;1999.90;999.90;;;22.80;99.90;;;;;;4930139;28;20062;-76
2023/07/10 07:45:27;;;;;;;1999.90;999.90;;;23.20;99.90;;;;;;4929685;29;20141;-77
2023/07/10 07:47:52;;;;;;;1999.90;999.90;;;23.80;99.90;;;;;;4929851;29;20208;-76
2023/07/10 07:50:18;;;;;;;1999.90;999.90;;;24.30;99.90;;;;;;4930943;28;20342;-76
2023/07/10 07:52:44;;;;;;;1999.90;999.90;;;24.70;99.90;;;;;;4937036;28;20263;-76
2023/07/10 07:55:10;;;;;;;1999.90;999.90;;;24.00;99.90;;;;;;4925978;28;20533;-76
2023/07/10 07:57:37;;;;;;;1999.90;999.90;;;23.40;99.90;;;;;;4932309;28;20154;-76
2023/07/10 08:00:04;;;;;;;1999.90;999.90;;;23.10;99.90;;;;;;4925615;29;20569;-77
2023/07/10 08:02:30;;;;;;;1999.90;999.90;;;23.00;99.90;;;;;;4928323;28;20154;-76
2023/07/10 08:04:55;;;;;;;1999.90;999.90;;;23.10;99.90;;;;;;4918119;28;20032;-76
2023/07/10 08:07:21;;;;;;;1999.90;999.90;;;23.50;99.90;;;;;;4932671;28;20035;-77
2023/07/10 08:09:47;;;;;;;1999.90;999.90;;;23.70;99.90;;;;;;4918495;29;20461;-78
2023/07/10 08:12:12;;;;;;;1999.90;999.90;;;24.60;99.90;;;;;;4929348;28;20039;-77
2023/07/10 08:14:38;;;;;;;1999.90;999.90;;;25.00;99.90;;;;;;4934380;28;20098;-77
2023/07/10 08:17:04;;;;;;;1999.90;999.90;;;25.30;99.90;;;;;;4930307;28;20039;-77
2023/07/10 08:19:29;;;;;;;1999.90;999.90;;;25.90;99.90;;;;;;4936919;28;20476;-77
2023/07/10 08:21:57;;;;;;;1999.90;999.90;;;26.60;99.90;;;;;;4935248;28;20039;-77
2023/07/10 08:24:24;;;;;;;1999.90;999.90;;;26.70;99.90;;;;;;4929890;28;20211;-77
2023/07/10 08:26:50;;;;;;;1999.90;999.90;;;27.90;99.90;;;;;;4926235;28;20059;-77
2023/07/10 08:29:27;;;;;;;1999.90;999.90;;;28.20;99.90;;;;;;4937724;28;20130;-77
2023/07/10 08:31:55;;;;;;;1999.90;999.90;;;29.00;99.90;;;;;;4941215;28;20485;-77
2023/07/10 08:34:22;;;;;;;1999.90;999.90;;;30.00;99.90;;;;;;4920455;28;20419;-77
2023/07/10 08:36:48;;;;;;;1999.90;999.90;;;28.60;99.90;;;;;;4912069;28;20039;-76
2023/07/10 08:39:15;;;;;;;1999.90;999.90;;;27.10;99.90;;;;;;4927538;28;20724;-76
2023/07/10 08:41:41;;;;;;;1999.90;999.90;;;27.60;99.90;;;;;;4933279;28;20036;-77
2023/07/10 08:44:11;;;;;;;1999.90;999.90;;;27.40;99.90;;;;;;4913697;29;20520;-77
2023/07/10 08:46:36;;;;;;;1999.90;999.90;;;27.40;99.90;;;;;;4928204;29;20732;-76
2023/07/10 08:49:16;;;;;;;1999.90;999.90;;;27.50;99.90;;;;;;4912851;28;20031;-76
2023/07/10 08:52:01;;;;;;;1999.90;999.90;;;27.40;99.90;;;;;;4944051;28;20628;-77
2023/07/10 08:54:27;;;;;;;1999.90;999.90;;;27.10;99.90;;;;;;4936174;28;20434;-76
2023/07/10 08:57:24;;;;;;;1999.90;999.90;;;27.10;99.90;;;;;;4940623;28;20533;-77
2023/07/10 09:00:07;;;;;;;1999.90;999.90;;;28.40;99.90;;;;;;4920917;28;20361;-77
2023/07/10 09:02:38;;;;;;;1999.90;999.90;;;28.80;99.90;;;;;;4930271;28;20035;-77
2023/07/10 09:05:12;;;;;;;1999.90;999.90;;;30.30;99.90;;;;;;4930245;28;20029;-78
2023/07/10 09:07:42;;;;;;;1999.90;999.90;;;31.70;99.90;;;;;;4929142;28;20042;-78
2023/07/10 09:10:25;;;;;;;1999.90;999.90;;;32.60;99.90;;;;;;4910594;29;20024;-77
2023/07/10 09:12:54;;;;;;;1999.90;999.90;;;33.20;99.90;;;;;;4934087;28;20046;-78
2023/07/10 09:15:26;;;;;;;1999.90;999.90;;;33.70;99.90;;;;;;4930784;28;20126;-77
2023/07/10 09:18:13;;;;;;;1999.90;999.90;;;33.10;99.90;;;;;;4928929;29;20136;-78
2023/07/10 09:20:40;;;;;;;1999.90;999.90;;;33.00;99.20;;;;;;4929374;28;20541;-77
2023/07/10 09:23:17;;;;;;;1999.90;999.90;;;33.40;98.40;;;;;;4930206;28;20368;-77
2023/07/10 09:25:43;;;;;;;1999.90;999.90;;;33.60;98.20;;;;;;4918897;29;20435;-77
2023/07/10 09:28:09;;;;;;;1999.90;999.90;;;33.90;98.00;;;;;;4928442;29;20147;-77
2023/07/10 09:31:01;;;;;;;1999.90;999.90;;;34.20;97.10;;;;;;4928384;28;20118;-77
2023/07/10 09:33:40;;;;;;;1999.90;999.90;;;34.00;96.80;;;;;;4924502;29;20330;-77
2023/07/10 09:36:13;;;;;;;1999.90;999.90;;;34.30;95.40;;;;;;4928561;28;20038;-78
2023/07/10 09:38:43;;;;;;;1999.90;999.90;;;33.80;95.30;;;;;;4928087;28;20561;-77
2023/07/10 09:41:21;;;;;;;1999.90;999.90;;;34.50;94.80;;;;;;4924344;29;20034;-77
2023/07/10 09:43:54;;;;;;;1999.90;999.90;;;34.20;94.40;;;;;;4931591;28;20556;-77
2023/07/10 09:46:27;;;;;;;1999.90;999.90;;;33.60;93.30;;;;;;4928887;29;20628;-78
2023/07/10 09:48:54;;;;;;;1999.90;999.90;;;33.50;94.40;;;;;;4927535;29;20370;-77
2023/07/10 09:51:20;;;;;;;1999.90;999.90;;;33.30;94.60;;;;;;4927829;29;20161;-77
2023/07/10 09:53:52;;;;;;;1999.90;999.90;;;33.70;93.90;;;;;;4925386;29;20031;-77
2023/07/10 09:56:35;;;;;;;1999.90;999.90;;;33.60;93.20;;;;;;4926224;29;20043;-77
2023/07/10 09:59:15;;;;;;;1999.90;999.90;;;34.90;92.80;;;;;;4927983;28;20039;-77
2023/07/10 10:01:42;;;;;;;1999.90;999.90;;;34.50;93.30;;;;;;4913292;29;20086;-77
2023/07/10 10:04:09;;;;;;;1999.90;999.90;;;33.90;93.40;;;;;;4910589;29;20110;-77
2023/07/10 10:06:40;;;;;;;1999.90;999.90;;;34.50;92.60;;;;;;4916096;29;20035;-77
2023/07/10 10:09:22;;;;;;;1999.90;999.90;;;34.50;92.60;;;;;;4929874;28;20113;-76
2023/07/10 10:11:51;;;;;;;1999.90;999.90;;;34.20;93.10;;;;;;4927632;29;20666;-77
2023/07/10 10:14:30;;;;;;;1999.90;999.90;;;34.30;93.40;;;;;;4915991;29;20342;-77
2023/07/10 10:17:01;;;;;;;1999.90;999.90;;;33.30;93.10;;;;;;4913982;29;20039;-79
2023/07/10 10:19:41;;;;;;;1999.90;999.90;;;33.30;94.10;;;;;;4927510;29;20023;-78
2023/07/10 10:22:11;;;;;;;1999.90;999.90;;;33.70;93.20;;;;;;4932950;28;20129;-77
2023/07/10 10:24:37;;;;;;;1999.90;999.90;;;33.80;93.40;;;;;;4927606;28;20043;-77
2023/07/10 10:27:09;;;;;;;1999.90;999.90;;;34.10;93.70;;;;;;4927811;29;20584;-79
2023/07/10 10:29:40;;;;;;;1999.90;999.90;;;34.50;93.60;;;;;;4927843;29;20031;-77
2023/07/10 10:32:23;;;;;;;1999.90;999.90;;;34.20;93.90;;;;;;4921789;29;20043;-77
2023/07/10 10:35:00;;;;;;;1999.90;999.90;;;34.10;93.50;;;;;;4927767;28;20065;-78
2023/07/10 10:37:44;;;;;;;1999.90;999.90;;;33.70;93.70;;;;;;4927203;29;20039;-77
2023/07/10 10:40:21;;;;;;;1999.90;999.90;;;33.90;93.40;;;;;;4930356;28;20608;-77
2023/07/10 10:43:16;;;;;;;1999.90;999.90;;;34.90;93.40;;;;;;4940482;28;20089;-77
2023/07/10 10:45:49;;;;;;;1999.90;999.90;;;34.40;93.00;;;;;;4926175;28;20028;-77
2023/07/10 10:48:23;;;;;;;1999.90;999.90;;;35.50;92.20;;;;;;4925998;28;20061;-77
2023/07/10 10:50:48;;;;;;;1999.90;999.90;;;34.10;92.50;;;;;;4927406;28;20905;-78
2023/07/10 10:53:22;;;;;;;1999.90;999.90;;;33.70;93.70;;;;;;4926446;29;20113;-78
2023/07/10 10:56:05;;;;;;;1999.90;999.90;;;33.80;93.90;;;;;;4909964;29;20032;-78
2023/07/10 10:58:51;;;;;;;1999.90;999.90;;;34.60;93.00;;;;;;4926054;29;20027;-74
2023/07/10 11:01:37;;;;;;;1999.90;999.90;;;34.10;91.90;;;;;;4916880;28;20030;-75
2023/07/10 11:04:15;;;;;;;1999.90;999.90;;;34.50;93.10;;;;;;4926101;29;20039;-75
2023/07/10 11:07:12;;;;;;;1999.90;999.90;;;34.50;92.40;;;;;;4909012;29;20033;-75
2023/07/10 11:09:54;;;;;;;1999.90;999.90;;;34.30;91.50;;;;;;4926744;28;20047;-75
2023/07/10 11:12:21;;;;;;;;;;;33.80;91.90;;;;;;4927281;28;20473;-74
2023/07/10 11:14:56;;;;;;;1999.90;999.90;;;33.00;92.20;;;;;;4918623;28;19991;-75
2023/07/10 11:17:23;;;;;;;1999.90;999.90;;;33.30;92.90;;;;;;4923849;28;20521;-75
2023/07/10 11:19:50;;;;;;;1999.90;999.90;;;34.00;92.90;;;;;;4921417;28;20031;-75
2023/07/10 11:22:36;;;;;;;1999.90;999.90;;;33.90;93.30;;;;;;4925303;29;20042;-75
2023/07/10 11:25:02;;;;;;;1999.90;999.90;;;34.40;92.30;;;;;;4917401;29;20070;-75
2023/07/10 11:27:33;;;;;;;1999.90;999.90;;;34.50;92.30;;;;;;4909045;29;20037;-75
2023/07/10 11:30:06;;;;;;;1999.90;999.90;;;34.50;92.20;;;;;;4925812;29;20032;-75
2023/07/10 11:32:54;;;;;;;1999.90;999.90;;;34.40;92.00;;;;;;4925632;29;20073;-75
2023/07/10 11:35:21;;;;;;;1999.90;999.90;;;34.00;92.90;;;;;;4926408;28;20048;-75
2023/07/10 11:37:49;;;;;;;1999.90;999.90;;;34.50;93.10;;;;;;4925393;29;20039;-75
2023/07/10 11:40:42;;;;;;;1999.90;999.90;;;33.90;93.70;;;;;;4922363;29;20857;-75
2023/07/10 11:43:26;;;;;;;1999.90;999.90;;;34.50;94.00;;;;;;4928364;28;20406;-77
2023/07/10 11:46:21;;;;;;;1999.90;999.90;;;33.40;94.40;;;;;;4932898;28;20039;-79
2023/07/10 11:49:01;;;;;;;1999.90;999.90;;;33.00;95.60;;;;;;4935392;28;20051;-79
2023/07/10 11:51:30;;;;;;;1999.90;999.90;;;34.10;94.70;;;;;;4940454;28;20035;-79
2023/07/10 11:54:33;;;;;;;1999.90;999.90;;;33.50;95.60;;;;;;4925785;28;20664;-80
2023/07/10 11:57:04;;;;;;;1999.90;999.90;;;33.90;95.70;;;;;;4894242;29;20629;-76
2023/07/10 11:59:30;;;;;;;1999.90;999.90;;;33.80;94.80;;;;;;4926134;29;21006;-75
2023/07/10 12:01:56;;;;;;;1999.90;999.90;;;33.00;95.30;;;;;;4932976;28;20051;-75
2023/07/10 12:04:25;;;;;;;1999.90;999.90;;;32.90;95.60;;;;;;4930670;28;20058;-76
2023/07/10 12:06:51;;;;;;;1999.90;999.90;;;33.40;95.70;;;;;;4929550;28;20821;-75
2023/07/10 12:09:16;;;;;;;1999.90;999.90;;;33.40;95.10;;;;;;4921235;28;20121;-74
2023/07/10 12:11:43;;;;;;;1999.90;999.90;;;33.40;94.50;;;;;;4914966;29;20054;-75
2023/07/10 12:14:10;;;;;;;1999.90;999.90;;;33.70;94.30;;;;;;4938593;28;20035;-74
2023/07/10 12:16:52;;;;;;;1999.90;999.90;;;33.20;94.10;;;;;;4928586;28;20059;-75
2023/07/10 12:19:20;;;;;;;;;;;33.70;94.70;;;;;;4920424;29;20067;-75
2023/07/10 12:21:46;;;;;;;1999.90;999.90;;;32.60;94.80;;;;;;4919441;29;19914;-75
2023/07/10 12:24:16;;;;;;;1999.90;999.90;;;32.50;94.10;;;;;;4928413;29;20058;-75
2023/07/10 12:26:43;;;;;;;1999.90;999.90;;;33.20;94.10;;;;;;4929427;28;20146;-76
2023/07/10 12:29:14;;;;;;;1999.90;999.90;;;33.10;93.90;;;;;;4927382;28;20221;-75
2023/07/10 12:31:41;;;;;;;1999.90;999.90;;;33.30;93.90;;;;;;4929874;29;20043;-75
2023/07/10 12:34:23;;;;;;;1999.90;999.90;;;33.40;93.70;;;;;;4915287;29;20358;-75
2023/07/10 12:36:51;;;;;;;1999.90;999.90;;;32.80;93.60;;;;;;4922555;29;20059;-75
2023/07/10 12:39:17;;;;;;;1999.90;999.90;;;32.60;94.10;;;;;;4927581;29;20062;-78
2023/07/10 12:41:47;;;;;;;1999.90;999.90;;;32.80;94.20;;;;;;4930028;28;20422;-75
2023/07/10 12:44:25;;;;;;;1999.90;999.90;;;32.50;94.20;;;;;;4929091;28;20031;-76
2023/07/10 12:47:08;;;;;;;1999.90;999.90;;;32.80;95.00;;;;;;4914118;29;20051;-75
2023/07/10 12:49:34;;;;;;;1999.90;999.90;;;32.80;94.40;;;;;;4930165;28;20023;-77
2023/07/10 12:52:04;;;;;;;1999.90;999.90;;;32.80;94.50;;;;;;4932993;28;20031;-78
2023/07/10 12:54:39;;;;;;;1999.90;999.90;;;32.40;94.40;;;;;;4913783;29;20159;-78
2023/07/10 12:57:26;;;;;;;1999.90;999.90;;;32.00;95.00;;;;;;4923642;29;20465;-77
2023/07/10 13:00:00;;;;;;;1999.90;999.90;;;32.10;94.70;;;;;;4929741;28;20039;-76
2023/07/10 13:02:29;;;;;;;1999.90;999.90;;;32.30;95.10;;;;;;4918629;28;20042;-74
2023/07/10 13:04:59;;;;;;;1999.90;999.90;;;33.00;94.70;;;;;;4927550;28;20038;-75
2023/07/10 13:07:33;;;;;;;1999.90;999.90;;;33.00;93.90;;;;;;4917907;29;20042;-76
2023/07/10 13:10:03;;;;;;;1999.90;999.90;;;33.10;93.70;;;;;;4924425;28;20327;-75
2023/07/10 13:12:39;;;;;;;1999.90;999.90;;;34.20;92.90;;;;;;4928418;28;20673;-75
2023/07/10 13:15:07;;;;;;;1999.90;999.90;;;33.70;93.00;;;;;;4930558;28;20340;-76
2023/07/10 13:17:36;;;;;;;1999.90;999.90;;;33.20;93.40;;;;;;4918545;28;20035;-75
2023/07/10 13:20:03;;;;;;;1999.90;999.90;;;33.20;93.10;;;;;;4910484;28;20592;-74
2023/07/10 13:22:28;;;;;;;1999.90;999.90;;;33.10;92.90;;;;;;4929185;29;20078;-74
2023/07/10 13:24:54;;;;;;;1999.90;999.90;;;33.10;93.50;;;;;;4936610;28;20500;-76
2023/07/10 13:27:20;;;;;;;1999.90;999.90;;;33.50;92.30;;;;;;4932424;28;20035;-76
2023/07/10 13:29:46;;;;;;;1999.90;999.90;;;34.20;92.20;;;;;;4929976;28;20031;-76
2023/07/10 13:32:13;;;;;;;1999.90;999.90;;;34.30;92.00;;;;;;4928528;29;20046;-76
2023/07/10 13:34:40;;;;;;;1999.90;999.90;;;34.20;91.50;;;;;;4928034;28;20435;-76
2023/07/10 13:37:31;;;;;;;1999.90;999.90;;;34.20;91.20;;;;;;4934870;28;20041;-76
2023/07/10 13:39:57;;;;;;;1999.90;999.90;;;34.60;90.90;;;;;;4930410;28;20241;-76
2023/07/10 13:42:23;;;;;;;1999.90;999.90;;;34.90;90.90;;;;;;4935506;28;20463;-77
2023/07/10 13:44:50;;;;;;;1999.90;999.90;;;35.40;89.60;;;;;;4918183;28;20584;-77
2023/07/10 13:47:18;;;;;;;1999.90;999.90;;;35.20;89.50;;;;;;4938916;28;20161;-77
2023/07/10 13:49:45;;;;;;;1999.90;999.90;;;35.90;88.90;;;;;;4911034;29;20561;-77
2023/07/10 13:52:16;;;;;;;1999.90;999.90;;;35.20;89.40;;;;;;4920904;28;20525;-78
2023/07/10 13:54:43;;;;;;;1999.90;999.90;;;35.60;88.90;;;;;;4962571;28;20486;-77
2023/07/10 13:57:19;;;;;;;1999.90;999.90;;;35.70;88.30;;;;;;4961782;28;20039;-79
2023/07/10 13:59:45;;;;;;;1999.90;999.90;;;35.90;87.30;;;;;;4949243;28;20520;-76
2023/07/10 14:02:34;;;;;;;1999.90;999.90;;;35.40;88.30;;;;;;4952916;28;21982;-75
2023/07/10 14:05:03;;;;;;;1999.90;999.90;;;35.50;90.10;;;;;;4952878;28;20039;-77
2023/07/10 14:07:30;;;;;;;1999.90;999.90;;;36.00;88.90;;;;;;4953839;28;20066;-76
2023/07/10 14:09:58;;;;;;;1999.90;999.90;;;35.90;89.80;;;;;;4956162;28;20390;-76
2023/07/10 14:12:29;;;;;;;1999.90;999.90;;;36.60;90.50;;;;;;4951603;28;20037;-76
2023/07/10 14:14:55;;;;;;;1999.90;999.90;;;36.70;87.00;;;;;;4939498;29;20066;-77
2023/07/10 14:17:34;;;;;;;1999.90;999.90;;;36.20;87.90;;;;;;4958201;28;20058;-76
2023/07/10 14:20:01;;;;;;;1999.90;999.90;;;36.10;88.90;;;;;;4949596;29;20115;-76
2023/07/10 14:22:27;;;;;;;1999.90;999.90;;;35.70;88.50;;;;;;4956615;28;20061;-76
2023/07/10 14:24:53;;;;;;;1999.90;999.90;;;36.90;88.90;;;;;;4953805;28;20062;-76
2023/07/10 14:27:21;;;;;;;1999.90;999.90;;;37.30;88.70;;;;;;4949654;29;20078;-76
2023/07/10 14:29:48;;;;;;;1999.90;999.90;;;37.50;87.90;;;;;;4954335;28;20027;-77
2023/07/10 14:32:18;;;;;;;1999.90;999.90;;;37.50;88.80;;;;;;4961285;28;20090;-77
2023/07/10 14:34:44;;;;;;;1999.90;999.90;;;37.10;89.30;;;;;;4962688;28;20063;-77
2023/07/10 14:37:16;;;;;;;1999.90;999.90;;;36.30;89.20;;;;;;4964400;28;20110;-78
2023/07/10 14:39:43;;;;;;;1999.90;999.90;;;36.40;89.90;;;;;;4953348;28;20023;-79
2023/07/10 14:42:15;;;;;;;1999.90;999.90;;;36.20;89.00;;;;;;4958216;28;20035;-79
2023/07/10 14:44:41;;;;;;;1999.90;999.90;;;36.20;90.00;;;;;;4952494;28;20022;-80
2023/07/10 14:47:18;;;;;;;1999.90;999.90;;;36.00;90.00;;;;;;4937619;29;20139;-78
2023/07/10 14:49:45;;;;;;;1999.90;999.90;;;35.90;90.30;;;;;;4933756;29;20070;-77
2023/07/10 14:52:21;;;;;;;1999.90;999.90;;;36.10;91.00;;;;;;4934619;29;20483;-79
2023/07/10 14:54:50;;;;;;;1999.90;999.90;;;36.20;90.50;;;;;;4934474;29;20098;-78
2023/07/10 14:57:34;;;;;;;1999.90;999.90;;;35.80;90.90;;;;;;4933347;29;20087;-76
2023/07/10 15:00:03;;;;;;;1999.90;999.90;;;36.20;90.10;;;;;;4932007;29;20044;-77
2023/07/10 15:02:29;;;;;;;1999.90;999.90;;;36.10;90.30;;;;;;4934265;29;20066;-77
2023/07/10 15:04:54;;;;;;;1999.90;999.90;;;36.10;90.30;;;;;;4934146;29;20422;-78
2023/07/10 15:07:21;;;;;;;1999.90;999.90;;;36.20;90.70;;;;;;4932967;29;20471;-78
2023/07/10 15:09:51;;;;;;;1999.90;999.90;;;35.90;90.30;;;;;;4932527;29;20107;-77
2023/07/10 15:12:20;;;;;;;1999.90;999.90;;;35.20;90.50;;;;;;4936498;29;20430;-77
2023/07/10 15:14:46;;;;;;;1999.90;999.90;;;35.60;90.70;;;;;;4932784;29;20111;-77
2023/07/10 15:17:16;;;;;;;1999.90;999.90;;;36.20;90.40;;;;;;4932605;29;20040;-77
2023/07/10 15:19:41;;;;;;;1999.90;999.90;;;35.90;90.20;;;;;;4933973;29;20028;-77
2023/07/10 15:22:12;;;;;;;1999.90;999.90;;;35.20;90.40;;;;;;4933799;29;20119;-76
2023/07/10 15:24:38;;;;;;;1999.90;999.90;;;35.20;90.80;;;;;;4933949;29;20425;-78
2023/07/10 15:27:04;;;;;;;1999.90;999.90;;;35.20;90.80;;;;;;4932628;29;20031;-79
2023/07/10 15:29:30;;;;;;;1999.90;999.90;;;35.50;90.40;;;;;;4953298;28;20482;-78
2023/07/10 15:32:07;;;;;;;1999.90;999.90;;;35.20;90.80;;;;;;4942559;28;20055;-77
2023/07/10 15:34:37;;;;;;;1999.90;999.90;;;34.90;91.40;;;;;;4934150;29;20082;-77
2023/07/10 15:37:04;;;;;;;1999.90;999.90;;;34.80;90.90;;;;;;4944691;28;20110;-77
2023/07/10 15:39:29;;;;;;;1999.90;999.90;;;34.90;90.90;;;;;;4938410;28;20136;-77
2023/07/10 15:41:55;;;;;;;1999.90;999.90;;;35.00;91.00;;;;;;4936254;29;20035;-83
2023/07/10 15:44:21;;;;;;;1999.90;999.90;;;35.10;90.80;;;;;;4936649;29;20082;-82
2023/07/10 15:46:47;;;;;;;1999.90;999.90;;;34.20;91.40;;;;;;4941006;28;20059;-82
2023/07/10 15:49:20;;;;;;;1999.90;999.90;;;32.90;92.50;;;;;;4957031;29;20027;-82
2023/07/10 15:51:45;;;;;;;1999.90;999.90;;;32.20;94.40;;;;;;4956243;28;20050;-82
2023/07/10 15:54:11;;;;;;;1999.90;999.90;;;32.20;94.50;;;;;;4956659;28;20546;-81
2023/07/10 15:56:37;;;;;;;1999.90;999.90;;;31.80;95.00;;;;;;4957858;29;20110;-79
2023/07/10 15:59:29;;;;;;;1999.90;999.90;;;31.50;95.10;;;;;;4957568;29;20111;-79
2023/07/10 16:01:54;;;;;;;1999.90;999.90;;;31.10;95.90;;;;;;4953912;28;20137;-79
2023/07/10 16:04:23;;;;;;;1999.90;999.90;;;31.10;96.30;;;;;;4943415;29;20067;-82
2023/07/10 16:06:49;;;;;;;1999.90;999.90;;;31.10;96.20;;;;;;4938540;29;20020;-81
2023/07/10 16:09:16;;;;;;;1999.90;999.90;;;30.90;96.40;;;;;;4938373;29;20487;-80
2023/07/10 16:11:42;;;;;;;1999.90;999.90;;;30.90;96.60;;;;;;4938266;29;20090;-79
2023/07/10 16:14:16;;;;;;;1999.90;999.90;;;30.80;96.80;;;;;;4936285;29;20035;-79
2023/07/10 16:16:43;;;;;;;1999.90;999.90;;;30.60;97.30;;;;;;4938245;29;20075;-78
2023/07/10 16:19:12;;;;;;;1999.90;999.90;;;30.10;97.40;;;;;;4936255;29;20032;-79
2023/07/10 16:21:40;;;;;;;1999.90;999.90;;;29.90;97.70;;;;;;4945735;29;20486;-79
2023/07/10 16:24:15;;;;;;;1999.90;999.90;;;29.90;98.20;;;;;;4953006;28;20082;-79
2023/07/10 16:26:41;;;;;;;1999.90;999.90;;;30.00;98.40;;;;;;4937903;29;20091;-79
2023/07/10 16:29:11;;;;;;;1999.90;999.90;;;30.00;97.80;;;;;;4938354;29;20111;-79
2023/07/10 16:31:39;;;;;;;1999.90;999.90;;;30.00;98.00;;;;;;4937883;29;20035;-79
2023/07/10 16:34:05;;;;;;;1999.90;999.90;;;29.80;98.10;;;;;;4938190;29;20478;-79
2023/07/10 16:36:31;;;;;;;1999.90;999.90;;;29.70;98.50;;;;;;4948050;29;20027;-79
2023/07/10 16:38:56;;;;;;;1999.90;999.90;;;29.70;98.40;;;;;;4950183;29;20049;-78
2023/07/10 16:41:22;;;;;;;1999.90;999.90;;;29.60;98.40;;;;;;4938540;29;20102;-78
2023/07/10 16:43:49;;;;;;;1999.90;999.90;;;29.60;99.00;;;;;;4938376;29;20024;-78
2023/07/10 16:46:16;;;;;;;1999.90;999.90;;;29.50;99.10;;;;;;4945020;28;20133;-78
2023/07/10 16:48:44;;;;;;;1999.90;999.90;;;29.50;99.30;;;;;;4954718;28;20063;-78
2023/07/10 16:51:25;;;;;;;1999.90;999.90;;;29.60;98.90;;;;;;4956735;29;20023;-79
2023/07/10 16:53:53;;;;;;;1999.90;999.90;;;29.40;99.00;;;;;;4973073;28;20027;-78
2023/07/10 16:56:20;;;;;;;1999.90;999.90;;;29.30;98.80;;;;;;4975968;28;20106;-78
2023/07/10 16:58:46;;;;;;;1999.90;999.90;;;29.40;99.00;;;;;;4975778;28;20031;-78
2023/07/10 17:01:19;;;;;;;1999.90;999.90;;;29.40;98.80;;;;;;4975906;28;20026;-78
2023/07/10 17:03:45;;;;;;;1999.90;999.90;;;29.30;98.80;;;;;;4966289;28;20118;-78
2023/07/10 17:06:15;;;;;;;1999.90;999.90;;;28.90;99.30;;;;;;4956593;28;20023;-78
2023/07/10 17:08:40;;;;;;;1999.90;999.90;;;28.90;99.60;;;;;;4955908;28;20063;-78
2023/07/10 17:11:09;;;;;;;1999.90;999.90;;;28.80;99.90;;;;;;4956276;29;20121;-78
2023/07/10 17:13:36;;;;;;;1999.90;999.90;;;28.60;99.90;;;;;;4956300;29;20027;-78
2023/07/10 17:16:02;;;;;;;1999.90;999.90;;;28.70;99.80;;;;;;4938993;29;20434;-79
2023/07/10 17:18:29;;;;;;;1999.90;999.90;;;28.60;99.90;;;;;;4956590;29;20031;-79
2023/07/10 17:20:57;;;;;;;1999.90;999.90;;;28.50;99.90;;;;;;4956128;29;20078;-78
2023/07/10 17:23:27;;;;;;;1999.90;999.90;;;28.30;99.90;;;;;;4956308;29;20490;-79
2023/07/10 17:25:53;;;;;;;1999.90;999.90;;;28.10;99.90;;;;;;4938579;29;20019;-78
2023/07/10 17:28:22;;;;;;;1999.90;999.90;;;28.20;99.90;;;;;;4955970;29;20098;-78
2023/07/10 17:30:50;;;;;;;1999.90;999.90;;;28.20;99.90;;;;;;4956117;29;20058;-78
2023/07/10 17:33:38;;;;;;;1999.90;999.90;;;28.10;99.90;;;;;;4956191;29;20561;-78
2023/07/10 17:36:05;;;;;;;1999.90;999.90;;;27.90;99.90;;;;;;4936776;29;20130;-78
2023/07/10 17:38:33;;;;;;;1999.90;999.90;;;27.90;99.90;;;;;;4964286;28;20038;-78
2023/07/10 17:40:59;;;;;;;1999.90;999.90;;;27.90;99.90;;;;;;4959913;28;20042;-78
2023/07/10 17:43:30;;;;;;;1999.90;999.90;;;27.80;99.90;;;;;;4970282;28;20577;-78
2023/07/10 17:45:59;;;;;;;1999.90;999.90;;;27.70;99.90;;;;;;4974960;28;20037;-78
2023/07/10 17:48:26;;;;;;;1999.90;999.90;;;27.60;99.90;;;;;;4974790;28;20126;-78
2023/07/10 17:50:55;;;;;;;1999.90;999.90;;;27.60;99.90;;;;;;4963846;28;20031;-78
2023/07/10 17:53:22;;;;;;;1999.90;999.90;;;27.50;99.90;;;;;;4955143;29;20178;-78
2023/07/10 17:55:50;;;;;;;1999.90;999.90;;;27.30;99.90;;;;;;4955333;29;20050;-78
2023/07/10 17:58:21;;;;;;;1999.90;999.90;;;27.10;99.90;;;;;;4955788;29;20031;-78
2023/07/10 18:00:49;;;;;;;1999.90;999.90;;;27.10;99.90;;;;;;4955251;29;20024;-78
2023/07/10 18:03:19;;;;;;;1999.90;999.90;;;27.10;99.90;;;;;;4960394;28;20050;-78